sensor_id;sensor_type;location;lat;lon;timestamp;pressure;altitude;pressure_sealevel;temperature;humidity
11808;BME280;5961;42.640;23.380;2023-06-26T00:00:06;93880.75;;;20.97;100.00
11808;BME280;5961;42.640;23.380;2023-06-26T00:02:33;93880.34;;;20.98;100.00
11808;BME280;5961;42.640;23.380;2023-06-26T00:05:00;93871.91;;;20.93;100.00
11808;BME280;5961;42.640;23.380;2023-06-26T00:07:28;93875.38;;;20.93;100.00
11808;BME280;5961;42.640;23.380;2023-06-26T00:09:56;93883.84;;;20.95;100.00
11808;BME280;5961;42.640;23.380;2023-06-26T00:12:24;93876.88;;;20.94;100.00
11808;BME280;5961;42.640;23.380;2023-06-26T00:14:51;93880.03;;;20.89;100.00
11808;BME280;5961;42.640;23.380;2023-06-26T00:17:17;93880.41;;;20.91;100.00
11808;BME280;5961;42.640;23.380;2023-06-26T00:19:44;93880.84;;;20.86;100.00
11808;BME280;5961;42.640;23.380;2023-06-26T00:22:11;93867.03;;;20.77;100.00
11808;BME280;5961;42.640;23.380;2023-06-26T00:24:38;93869.38;;;20.75;100.00
11808;BME280;5961;42.640;23.380;2023-06-26T00:27:05;93864.34;;;20.73;100.00
11808;BME280;5961;42.640;23.380;2023-06-26T00:29:33;93849.06;;;20.60;100.00
11808;BME280;5961;42.640;23.380;2023-06-26T00:32:00;93869.00;;;20.73;100.00
11808;BME280;5961;42.640;23.380;2023-06-26T00:34:27;93872.94;;;20.65;100.00
11808;BME280;5961;42.640;23.380;2023-06-26T00:36:54;93876.00;;;20.67;100.00
11808;BME280;5961;42.640;23.380;2023-06-26T00:39:20;93873.72;;;20.62;100.00
11808;BME280;5961;42.640;23.380;2023-06-26T00:41:47;93873.72;;;20.62;100.00
11808;BME280;5961;42.640;23.380;2023-06-26T00:44:14;93850.66;;;20.54;100.00
11808;BME280;5961;42.640;23.380;2023-06-26T00:46:42;93873.38;;;20.56;100.00
11808;BME280;5961;42.640;23.380;2023-06-26T00:49:09;93868.44;;;20.48;100.00
11808;BME280;5961;42.640;23.380;2023-06-26T00:51:36;93863.00;;;20.55;100.00
11808;BME280;5961;42.640;23.380;2023-06-26T00:54:02;93854.91;;;20.55;100.00
11808;BME280;5961;42.640;23.380;2023-06-26T00:56:31;93858.34;;;20.55;100.00
11808;BME280;5961;42.640;23.380;2023-06-26T00:58:58;93853.81;;;20.49;100.00
11808;BME280;5961;42.640;23.380;2023-06-26T01:01:25;93858.41;;;20.52;100.00
11808;BME280;5961;42.640;23.380;2023-06-26T01:03:53;93868.44;;;20.48;100.00
11808;BME280;5961;42.640;23.380;2023-06-26T01:06:22;93849.91;;;20.50;100.00
11808;BME280;5961;42.640;23.380;2023-06-26T01:08:51;93847.59;;;20.52;100.00
11808;BME280;5961;42.640;23.380;2023-06-26T01:11:19;93831.84;;;20.43;100.00
11808;BME280;5961;42.640;23.380;2023-06-26T01:13:46;93839.13;;;20.46;100.00
11808;BME280;5961;42.640;23.380;2023-06-26T01:16:13;93818.31;;;20.47;100.00
11808;BME280;5961;42.640;23.380;2023-06-26T01:18:41;93827.94;;;20.51;100.00
11808;BME280;5961;42.640;23.380;2023-06-26T01:21:13;93842.25;;;20.45;100.00
11808;BME280;5961;42.640;23.380;2023-06-26T01:23:49;93841.84;;;20.46;100.00
11808;BME280;5961;42.640;23.380;2023-06-26T01:26:21;93837.19;;;20.50;100.00
11808;BME280;5961;42.640;23.380;2023-06-26T01:28:50;93831.84;;;20.43;100.00
11808;BME280;5961;42.640;23.380;2023-06-26T01:31:19;93822.25;;;20.39;100.00
11808;BME280;5961;42.640;23.380;2023-06-26T01:33:46;93823.34;;;20.45;100.00
11808;BME280;5961;42.640;23.380;2023-06-26T01:36:13;93817.22;;;20.41;100.00
11808;BME280;5961;42.640;23.380;2023-06-26T01:38:40;93825.34;;;20.37;100.00
11808;BME280;5961;42.640;23.380;2023-06-26T01:41:07;93831.81;;;20.47;100.00
11808;BME280;5961;42.640;23.380;2023-06-26T01:43:41;93818.75;;;20.42;100.00
11808;BME280;5961;42.640;23.380;2023-06-26T01:46:13;93799.13;;;20.38;100.00
11808;BME280;5961;42.640;23.380;2023-06-26T01:48:48;93811.41;;;20.46;100.00
11808;BME280;5961;42.640;23.380;2023-06-26T01:51:17;93827.59;;;20.46;100.00
11808;BME280;5961;42.640;23.380;2023-06-26T01:53:51;93823.00;;;20.43;100.00
11808;BME280;5961;42.640;23.380;2023-06-26T01:56:21;93816.41;;;20.44;100.00
11808;BME280;5961;42.640;23.380;2023-06-26T01:58:51;93820.63;;;20.48;100.00
11808;BME280;5961;42.640;23.380;2023-06-26T02:01:20;93814.47;;;20.48;100.00
11808;BME280;5961;42.640;23.380;2023-06-26T02:03:47;93813.69;;;20.47;100.00
11808;BME280;5961;42.640;23.380;2023-06-26T02:06:14;93804.91;;;20.40;100.00
11808;BME280;5961;42.640;23.380;2023-06-26T02:08:41;93805.63;;;20.44;100.00
11808;BME280;5961;42.640;23.380;2023-06-26T02:11:08;93806.84;;;20.39;100.00
11808;BME280;5961;42.640;23.380;2023-06-26T02:13:35;93806.91;;;20.29;100.00
11808;BME280;5961;42.640;23.380;2023-06-26T02:16:03;93817.69;;;20.29;100.00
11808;BME280;5961;42.640;23.380;2023-06-26T02:18:30;93810.78;;;20.24;100.00
11808;BME280;5961;42.640;23.380;2023-06-26T02:20:56;93815.78;;;20.29;100.00
11808;BME280;5961;42.640;23.380;2023-06-26T02:23:23;93815.00;;;20.25;100.00
11808;BME280;5961;42.640;23.380;2023-06-26T02:25:50;93818.91;;;20.20;100.00
11808;BME280;5961;42.640;23.380;2023-06-26T02:28:16;93789.66;;;20.15;100.00
11808;BME280;5961;42.640;23.380;2023-06-26T02:30:43;93813.09;;;20.25;100.00
11808;BME280;5961;42.640;23.380;2023-06-26T02:33:11;93814.66;;;20.27;100.00
11808;BME280;5961;42.640;23.380;2023-06-26T02:35:38;93818.47;;;20.29;100.00
11808;BME280;5961;42.640;23.380;2023-06-26T02:38:05;93825.00;;;20.32;100.00
11808;BME280;5961;42.640;23.380;2023-06-26T02:40:31;93833.88;;;20.32;100.00
11808;BME280;5961;42.640;23.380;2023-06-26T02:42:58;93823.09;;;20.29;100.00
11808;BME280;5961;42.640;23.380;2023-06-26T02:45:25;93820.03;;;20.27;100.00
11808;BME280;5961;42.640;23.380;2023-06-26T02:47:52;93823.09;;;20.29;100.00
11808;BME280;5961;42.640;23.380;2023-06-26T02:50:20;93831.94;;;20.33;100.00
11808;BME280;5961;42.640;23.380;2023-06-26T02:52:46;93834.69;;;20.25;100.00
11808;BME280;5961;42.640;23.380;2023-06-26T02:55:16;93833.16;;;20.24;100.00
11808;BME280;5961;42.640;23.380;2023-06-26T02:57:42;93813.88;;;20.19;100.00
11808;BME280;5961;42.640;23.380;2023-06-26T03:00:10;93824.31;;;20.20;100.00
11808;BME280;5961;42.640;23.380;2023-06-26T03:02:37;93820.84;;;20.20;100.00
11808;BME280;5961;42.640;23.380;2023-06-26T03:05:04;93825.09;;;20.17;100.00
11808;BME280;5961;42.640;23.380;2023-06-26T03:07:32;93832.41;;;20.17;100.00
11808;BME280;5961;42.640;23.380;2023-06-26T03:09:59;93818.94;;;20.13;100.00
11808;BME280;5961;42.640;23.380;2023-06-26T03:12:26;93816.31;;;20.06;100.00
11808;BME280;5961;42.640;23.380;2023-06-26T03:14:52;93820.50;;;20.11;100.00
11808;BME280;5961;42.640;23.380;2023-06-26T03:17:19;93825.91;;;20.11;100.00
11808;BME280;5961;42.640;23.380;2023-06-26T03:19:45;93830.94;;;20.12;100.00
11808;BME280;5961;42.640;23.380;2023-06-26T03:22:12;93828.97;;;20.13;100.00
11808;BME280;5961;42.640;23.380;2023-06-26T03:24:40;93826.66;;;20.15;100.00
11808;BME280;5961;42.640;23.380;2023-06-26T03:27:07;93827.78;;;20.17;100.00
11808;BME280;5961;42.640;23.380;2023-06-26T03:29:35;93827.81;;;20.14;100.00
11808;BME280;5961;42.640;23.380;2023-06-26T03:32:02;93825.88;;;20.14;100.00
11808;BME280;5961;42.640;23.380;2023-06-26T03:34:28;93839.34;;;20.18;100.00
11808;BME280;5961;42.640;23.380;2023-06-26T03:36:55;93824.75;;;20.12;100.00
11808;BME280;5961;42.640;23.380;2023-06-26T03:39:22;93832.19;;;19.97;100.00
11808;BME280;5961;42.640;23.380;2023-06-26T03:41:50;93827.06;;;20.10;100.00
11808;BME280;5961;42.640;23.380;2023-06-26T03:44:18;93832.44;;;20.13;100.00
11808;BME280;5961;42.640;23.380;2023-06-26T03:46:45;93828.94;;;20.16;100.00
11808;BME280;5961;42.640;23.380;2023-06-26T03:49:11;93826.31;;;20.09;100.00
11808;BME280;5961;42.640;23.380;2023-06-26T03:51:38;93841.72;;;20.12;100.00
11808;BME280;5961;42.640;23.380;2023-06-26T03:54:05;93824.00;;;20.11;100.00
11808;BME280;5961;42.640;23.380;2023-06-26T03:56:32;93819.38;;;20.08;100.00
11808;BME280;5961;42.640;23.380;2023-06-26T03:59:00;93789.53;;;19.78;100.00
11808;BME280;5961;42.640;23.380;2023-06-26T04:01:26;93822.09;;;20.05;100.00
11808;BME280;5961;42.640;23.380;2023-06-26T04:03:53;93814.41;;;20.03;100.00
11808;BME280;5961;42.640;23.380;2023-06-26T04:06:20;93824.34;;;20.13;100.00
11808;BME280;5961;42.640;23.380;2023-06-26T04:08:47;93822.41;;;20.14;100.00
11808;BME280;5961;42.640;23.380;2023-06-26T04:11:14;93813.88;;;20.19;100.00
11808;BME280;5961;42.640;23.380;2023-06-26T04:13:41;93820.53;;;20.07;100.00
11808;BME280;5961;42.640;23.380;2023-06-26T04:16:09;93801.78;;;19.93;100.00
11808;BME280;5961;42.640;23.380;2023-06-26T04:18:36;93837.84;;;20.13;100.00
11808;BME280;5961;42.640;23.380;2023-06-26T04:21:06;93843.22;;;20.17;100.00
11808;BME280;5961;42.640;23.380;2023-06-26T04:23:33;93826.63;;;20.18;100.00
11808;BME280;5961;42.640;23.380;2023-06-26T04:26:00;93819.38;;;20.08;100.00
11808;BME280;5961;42.640;23.380;2023-06-26T04:28:27;93839.28;;;20.25;100.00
11808;BME280;5961;42.640;23.380;2023-06-26T04:30:54;93789.53;;;19.78;100.00
11808;BME280;5961;42.640;23.380;2023-06-26T04:33:22;93837.78;;;20.20;100.00
11808;BME280;5961;42.640;23.380;2023-06-26T04:35:49;93840.09;;;20.25;100.00
11808;BME280;5961;42.640;23.380;2023-06-26T04:38:16;93841.59;;;20.30;100.00
11808;BME280;5961;42.640;23.380;2023-06-26T04:40:43;93847.38;;;20.32;100.00
11808;BME280;5961;42.640;23.380;2023-06-26T04:43:09;93841.16;;;20.39;100.00
11808;BME280;5961;42.640;23.380;2023-06-26T04:45:36;93841.91;;;20.39;100.00
11808;BME280;5961;42.640;23.380;2023-06-26T04:48:04;93832.41;;;20.20;100.00
11808;BME280;5961;42.640;23.380;2023-06-26T04:50:32;93851.59;;;20.37;100.00
11808;BME280;5961;42.640;23.380;2023-06-26T04:53:00;93845.44;;;20.33;100.00
11808;BME280;5961;42.640;23.380;2023-06-26T04:55:27;93823.66;;;20.02;100.00
11808;BME280;5961;42.640;23.380;2023-06-26T04:57:54;93844.72;;;20.21;100.00
11808;BME280;5961;42.640;23.380;2023-06-26T05:00:21;93845.88;;;20.28;100.00
11808;BME280;5961;42.640;23.380;2023-06-26T05:02:47;93842.41;;;20.23;100.00
11808;BME280;5961;42.640;23.380;2023-06-26T05:05:14;93845.88;;;20.24;100.00
11808;BME280;5961;42.640;23.380;2023-06-26T05:07:42;93840.09;;;20.22;100.00
11808;BME280;5961;42.640;23.380;2023-06-26T05:10:09;93854.72;;;20.28;100.00
11808;BME280;5961;42.640;23.380;2023-06-26T05:12:36;93853.91;;;20.35;100.00
11808;BME280;5961;42.640;23.380;2023-06-26T05:15:04;93852.00;;;20.32;100.00
11808;BME280;5961;42.640;23.380;2023-06-26T05:17:30;93850.06;;;20.32;100.00
11808;BME280;5961;42.640;23.380;2023-06-26T05:19:57;93877.00;;;20.43;100.00
11808;BME280;5961;42.640;23.380;2023-06-26T05:22:24;93863.84;;;20.45;100.00
11808;BME280;5961;42.640;23.380;2023-06-26T05:24:54;93861.50;;;20.47;100.00
11808;BME280;5961;42.640;23.380;2023-06-26T05:27:22;93866.13;;;20.46;100.00
11808;BME280;5961;42.640;23.380;2023-06-26T05:29:49;93864.97;;;20.51;100.00
11808;BME280;5961;42.640;23.380;2023-06-26T05:32:17;93857.59;;;20.55;100.00
11808;BME280;5961;42.640;23.380;2023-06-26T05:34:45;93859.50;;;20.58;100.00
11808;BME280;5961;42.640;23.380;2023-06-26T05:37:14;93876.44;;;20.62;100.00
11808;BME280;5961;42.640;23.380;2023-06-26T05:39:43;93864.47;;;20.63;100.00
11808;BME280;5961;42.640;23.380;2023-06-26T05:42:13;93866.81;;;20.61;100.00
11808;BME280;5961;42.640;23.380;2023-06-26T05:44:40;93867.09;;;20.70;100.00
11808;BME280;5961;42.640;23.380;2023-06-26T05:47:07;93865.94;;;20.71;100.00
11808;BME280;5961;42.640;23.380;2023-06-26T05:49:34;93879.06;;;20.69;100.00
11808;BME280;5961;42.640;23.380;2023-06-26T05:52:01;93870.88;;;20.76;100.00
11808;BME280;5961;42.640;23.380;2023-06-26T05:54:28;93869.78;;;20.70;100.00
11808;BME280;5961;42.640;23.380;2023-06-26T05:56:57;93835.25;;;20.51;100.00
11808;BME280;5961;42.640;23.380;2023-06-26T05:59:26;93899.78;;;20.83;100.00
11808;BME280;5961;42.640;23.380;2023-06-26T06:01:53;93897.84;;;20.83;100.00
11808;BME280;5961;42.640;23.380;2023-06-26T06:04:20;93882.00;;;20.85;100.00
11808;BME280;5961;42.640;23.380;2023-06-26T06:06:46;93885.84;;;20.88;100.00
11808;BME280;5961;42.640;23.380;2023-06-26T06:09:13;93887.34;;;20.92;100.00
11808;BME280;5961;42.640;23.380;2023-06-26T06:11:40;93884.34;;;20.83;100.00
11808;BME280;5961;42.640;23.380;2023-06-26T06:14:07;93885.09;;;20.87;100.00
11808;BME280;5961;42.640;23.380;2023-06-26T06:16:35;93867.28;;;20.93;100.00
11808;BME280;5961;42.640;23.380;2023-06-26T06:19:02;93860.69;;;20.94;100.00
11808;BME280;5961;42.640;23.380;2023-06-26T06:21:29;93884.09;;;21.08;100.00
11808;BME280;5961;42.640;23.380;2023-06-26T06:23:56;93869.47;;;21.05;100.00
11808;BME280;5961;42.640;23.380;2023-06-26T06:26:22;93863.28;;;21.05;100.00
11808;BME280;5961;42.640;23.380;2023-06-26T06:28:49;93863.94;;;21.19;100.00
11808;BME280;5961;42.640;23.380;2023-06-26T06:31:16;93869.25;;;21.26;100.00
11808;BME280;5961;42.640;23.380;2023-06-26T06:33:44;93873.88;;;21.29;99.79
11808;BME280;5961;42.640;23.380;2023-06-26T06:36:10;93867.34;;;21.27;99.19
11808;BME280;5961;42.640;23.380;2023-06-26T06:38:37;93871.56;;;21.28;99.26
11808;BME280;5961;42.640;23.380;2023-06-26T06:41:04;93865.75;;;21.29;99.50
11808;BME280;5961;42.640;23.380;2023-06-26T06:43:30;93879.97;;;21.33;98.57
11808;BME280;5961;42.640;23.380;2023-06-26T06:45:57;93876.88;;;21.35;97.48
11808;BME280;5961;42.640;23.380;2023-06-26T06:48:24;93874.13;;;21.42;97.91
11808;BME280;5961;42.640;23.380;2023-06-26T06:50:52;93852.25;;;21.29;97.86
11808;BME280;5961;42.640;23.380;2023-06-26T06:53:19;93850.25;;;21.33;96.61
11808;BME280;5961;42.640;23.380;2023-06-26T06:55:46;93872.00;;;21.57;96.49
11808;BME280;5961;42.640;23.380;2023-06-26T06:58:13;93866.47;;;21.64;97.03
11808;BME280;5961;42.640;23.380;2023-06-26T07:00:41;93871.81;;;21.71;97.21
11808;BME280;5961;42.640;23.380;2023-06-26T07:03:08;93876.03;;;21.75;96.33
11808;BME280;5961;42.640;23.380;2023-06-26T07:05:35;93874.75;;;21.83;94.01
11808;BME280;5961;42.640;23.380;2023-06-26T07:08:04;93864.72;;;21.80;94.38
11808;BME280;5961;42.640;23.380;2023-06-26T07:10:31;93881.28;;;21.86;94.17
11808;BME280;5961;42.640;23.380;2023-06-26T07:12:57;93885.44;;;21.94;94.72
11808;BME280;5961;42.640;23.380;2023-06-26T07:15:24;93865.75;;;21.94;95.29
11808;BME280;5961;42.640;23.380;2023-06-26T07:17:51;93868.31;;;22.04;95.11
11808;BME280;5961;42.640;23.380;2023-06-26T07:20:17;93870.91;;;22.11;93.77
11808;BME280;5961;42.640;23.380;2023-06-26T07:22:44;93882.09;;;22.13;90.66
11808;BME280;5961;42.640;23.380;2023-06-26T07:25:13;93885.16;;;22.15;90.24
11808;BME280;5961;42.640;23.380;2023-06-26T07:27:41;93875.84;;;22.16;90.38
11808;BME280;5961;42.640;23.380;2023-06-26T07:30:09;93881.19;;;22.23;89.36
11808;BME280;5961;42.640;23.380;2023-06-26T07:32:36;93879.97;;;22.24;88.92
11808;BME280;5961;42.640;23.380;2023-06-26T07:35:03;93870.22;;;22.30;88.72
11808;BME280;5961;42.640;23.380;2023-06-26T07:37:30;93874.78;;;22.37;91.01
11808;BME280;5961;42.640;23.380;2023-06-26T07:39:57;93874.81;;;22.33;87.39
11808;BME280;5961;42.640;23.380;2023-06-26T07:42:25;93886.03;;;22.35;86.64
11808;BME280;5961;42.640;23.380;2023-06-26T07:44:51;93890.19;;;22.40;86.44
11808;BME280;5961;42.640;23.380;2023-06-26T07:47:18;93872.06;;;22.37;84.95
11808;BME280;5961;42.640;23.380;2023-06-26T07:49:45;93880.03;;;22.48;84.95
11808;BME280;5961;42.640;23.380;2023-06-26T07:52:12;93887.69;;;22.53;84.25
11808;BME280;5961;42.640;23.380;2023-06-26T07:54:40;93883.00;;;22.57;84.35
11808;BME280;5961;42.640;23.380;2023-06-26T07:57:07;93885.56;;;22.64;83.98
11808;BME280;5961;42.640;23.380;2023-06-26T07:59:35;93881.34;;;22.63;81.53
11808;BME280;5961;42.640;23.380;2023-06-26T08:02:02;93844.16;;;22.40;82.03
11808;BME280;5961;42.640;23.380;2023-06-26T08:04:30;93872.03;;;22.64;81.93
11808;BME280;5961;42.640;23.380;2023-06-26T08:06:58;93857.78;;;22.60;82.11
11808;BME280;5961;42.640;23.380;2023-06-26T08:09:26;93890.31;;;22.83;82.09
11808;BME280;5961;42.640;23.380;2023-06-26T08:11:53;93886.72;;;22.89;82.25
11808;BME280;5961;42.640;23.380;2023-06-26T08:14:20;93857.81;;;22.83;83.01
11808;BME280;5961;42.640;23.380;2023-06-26T08:16:48;93871.31;;;23.06;82.28
11808;BME280;5961;42.640;23.380;2023-06-26T08:19:16;93887.94;;;23.08;81.72
11808;BME280;5961;42.640;23.380;2023-06-26T08:21:43;93897.97;;;23.11;78.93
11808;BME280;5961;42.640;23.380;2023-06-26T08:24:10;93837.22;;;22.85;78.51
11808;BME280;5961;42.640;23.380;2023-06-26T08:26:38;93864.09;;;23.00;79.46
11808;BME280;5961;42.640;23.380;2023-06-26T08:29:05;93883.88;;;23.20;79.26
11808;BME280;5961;42.640;23.380;2023-06-26T08:31:33;93874.75;;;23.30;80.42
11808;BME280;5961;42.640;23.380;2023-06-26T08:34:02;93861.13;;;23.33;80.22
11808;BME280;5961;42.640;23.380;2023-06-26T08:36:29;93877.28;;;23.40;78.03
11808;BME280;5961;42.640;23.380;2023-06-26T08:38:56;93891.47;;;23.48;78.17
11808;BME280;5961;42.640;23.380;2023-06-26T08:41:23;93896.16;;;23.47;78.18
11808;BME280;5961;42.640;23.380;2023-06-26T08:43:49;93879.38;;;23.53;78.90
11808;BME280;5961;42.640;23.380;2023-06-26T08:46:18;93884.47;;;23.51;76.02
11808;BME280;5961;42.640;23.380;2023-06-26T08:48:48;93878.69;;;23.48;77.03
11808;BME280;5961;42.640;23.380;2023-06-26T08:51:17;93880.56;;;23.52;77.72
11808;BME280;5961;42.640;23.380;2023-06-26T08:53:50;93874.72;;;23.53;79.40
11808;BME280;5961;42.640;23.380;2023-06-26T08:56:19;93879.88;;;23.47;80.39
11808;BME280;5961;42.640;23.380;2023-06-26T08:58:47;93879.28;;;23.36;79.74
11808;BME280;5961;42.640;23.380;2023-06-26T09:01:14;93880.78;;;23.41;77.82
11808;BME280;5961;42.640;23.380;2023-06-26T09:03:41;93872.34;;;23.35;77.99
11808;BME280;5961;42.640;23.380;2023-06-26T09:06:08;93867.50;;;23.46;78.11
11808;BME280;5961;42.640;23.380;2023-06-26T09:08:36;93863.25;;;23.45;75.93
11808;BME280;5961;42.640;23.380;2023-06-26T09:11:02;93871.19;;;23.56;76.69
11808;BME280;5961;42.640;23.380;2023-06-26T09:13:30;93870.75;;;23.58;75.93
11808;BME280;5961;42.640;23.380;2023-06-26T09:15:56;93867.19;;;23.61;75.61
11808;BME280;5961;42.640;23.380;2023-06-26T09:18:24;93863.38;;;23.58;76.27
11808;BME280;5961;42.640;23.380;2023-06-26T09:20:51;93860.03;;;23.70;76.48
11808;BME280;5961;42.640;23.380;2023-06-26T09:23:18;93850.03;;;23.67;76.02
11808;BME280;5961;42.640;23.380;2023-06-26T09:25:47;93866.75;;;23.82;76.44
11808;BME280;5961;42.640;23.380;2023-06-26T09:28:14;93879.66;;;23.78;74.24
11808;BME280;5961;42.640;23.380;2023-06-26T09:30:41;93864.88;;;23.79;74.64
11808;BME280;5961;42.640;23.380;2023-06-26T09:33:14;93875.59;;;23.86;74.89
11808;BME280;5961;42.640;23.380;2023-06-26T09:35:42;93873.28;;;23.84;74.08
11808;BME280;5961;42.640;23.380;2023-06-26T09:38:09;93875.34;;;23.80;72.93
11808;BME280;5961;42.640;23.380;2023-06-26T09:40:35;93865.16;;;23.84;74.30
11808;BME280;5961;42.640;23.380;2023-06-26T09:43:05;93860.84;;;23.87;72.42
11808;BME280;5961;42.640;23.380;2023-06-26T09:45:32;93856.53;;;23.89;74.26
11808;BME280;5961;42.640;23.380;2023-06-26T09:48:00;93880.47;;;23.94;73.74
11808;BME280;5961;42.640;23.380;2023-06-26T09:50:28;93854.78;;;23.99;74.85
11808;BME280;5961;42.640;23.380;2023-06-26T09:52:57;93859.69;;;24.04;75.57
11808;BME280;5961;42.640;23.380;2023-06-26T09:55:25;93867.91;;;24.00;74.12
11808;BME280;5961;42.640;23.380;2023-06-26T09:57:56;93865.78;;;23.92;73.05
11808;BME280;5961;42.640;23.380;2023-06-26T10:00:24;93864.16;;;23.94;73.53
11808;BME280;5961;42.640;23.380;2023-06-26T10:02:52;93872.75;;;23.93;73.10
11808;BME280;5961;42.640;23.380;2023-06-26T10:05:19;93874.44;;;23.87;71.89
11808;BME280;5961;42.640;23.380;2023-06-26T10:07:46;93868.16;;;23.90;73.33
11808;BME280;5961;42.640;23.380;2023-06-26T10:10:14;93890.16;;;23.76;71.39
11808;BME280;5961;42.640;23.380;2023-06-26T10:12:43;93856.16;;;23.71;71.55
11808;BME280;5961;42.640;23.380;2023-06-26T10:15:13;93855.97;;;23.78;72.64
11808;BME280;5961;42.640;23.380;2023-06-26T10:17:45;93855.25;;;23.78;71.76
11808;BME280;5961;42.640;23.380;2023-06-26T10:20:14;93858.69;;;23.78;71.13
11808;BME280;5961;42.640;23.380;2023-06-26T10:22:44;93858.28;;;23.80;70.84
11808;BME280;5961;42.640;23.380;2023-06-26T10:25:14;93852.81;;;23.64;70.58
11808;BME280;5961;42.640;23.380;2023-06-26T10:27:47;93862.69;;;23.74;70.83
11808;BME280;5961;42.640;23.380;2023-06-26T10:30:20;93856.75;;;23.79;70.84
11808;BME280;5961;42.640;23.380;2023-06-26T10:32:50;93854.41;;;23.81;70.12
11808;BME280;5961;42.640;23.380;2023-06-26T10:35:17;93860.50;;;23.85;70.85
11808;BME280;5961;42.640;23.380;2023-06-26T10:37:45;93857.97;;;23.94;71.06
11808;BME280;5961;42.640;23.380;2023-06-26T10:40:13;93850.25;;;23.92;70.68
11808;BME280;5961;42.640;23.380;2023-06-26T10:42:40;93846.09;;;23.88;70.39
11808;BME280;5961;42.640;23.380;2023-06-26T10:45:11;93845.59;;;23.93;73.35
11808;BME280;5961;42.640;23.380;2023-06-26T10:47:40;93849.50;;;23.92;69.86
11808;BME280;5961;42.640;23.380;2023-06-26T10:50:18;93854.94;;;23.92;68.17
11808;BME280;5961;42.640;23.380;2023-06-26T10:52:45;93845.75;;;23.86;67.73
11808;BME280;5961;42.640;23.380;2023-06-26T10:55:13;93858.22;;;23.83;67.21
11808;BME280;5961;42.640;23.380;2023-06-26T10:57:44;93835.03;;;23.79;67.84
11808;BME280;5961;42.640;23.380;2023-06-26T11:00:14;93840.19;;;23.73;67.98
11808;BME280;5961;42.640;23.380;2023-06-26T11:02:48;93828.25;;;23.71;67.61
11808;BME280;5961;42.640;23.380;2023-06-26T11:05:25;93834.00;;;23.73;67.66
11808;BME280;5961;42.640;23.380;2023-06-26T11:08:06;93843.69;;;23.74;68.70
11808;BME280;5961;42.640;23.380;2023-06-26T11:10:49;93837.41;;;23.77;69.93
11808;BME280;5961;42.640;23.380;2023-06-26T11:13:17;93744.00;;;23.22;70.96
11808;BME280;5961;42.640;23.380;2023-06-26T11:15:45;93840.81;;;23.81;71.29
11808;BME280;5961;42.640;23.380;2023-06-26T11:18:12;93834.13;;;23.85;71.27
11808;BME280;5961;42.640;23.380;2023-06-26T11:20:41;93826.31;;;23.87;70.25
11808;BME280;5961;42.640;23.380;2023-06-26T11:23:08;93857.31;;;23.90;69.61
11808;BME280;5961;42.640;23.380;2023-06-26T11:25:35;93824.22;;;23.95;69.94
11808;BME280;5961;42.640;23.380;2023-06-26T11:28:03;93838.75;;;24.04;69.88
11808;BME280;5961;42.640;23.380;2023-06-26T11:30:30;93831.22;;;24.12;69.86
11808;BME280;5961;42.640;23.380;2023-06-26T11:33:04;93827.19;;;24.20;68.77
11808;BME280;5961;42.640;23.380;2023-06-26T11:35:30;93821.66;;;24.24;69.33
11808;BME280;5961;42.640;23.380;2023-06-26T11:37:59;93830.22;;;24.22;67.25
11808;BME280;5961;42.640;23.380;2023-06-26T11:40:29;93828.38;;;24.35;66.95
11808;BME280;5961;42.640;23.380;2023-06-26T11:42:57;93847.72;;;24.37;66.86
11808;BME280;5961;42.640;23.380;2023-06-26T11:45:24;93786.94;;;24.15;67.53
11808;BME280;5961;42.640;23.380;2023-06-26T11:47:51;93836.69;;;24.44;66.66
11808;BME280;5961;42.640;23.380;2023-06-26T11:50:18;93837.13;;;24.59;66.14
11808;BME280;5961;42.640;23.380;2023-06-26T11:52:45;93825.47;;;24.75;63.75
11808;BME280;5961;42.640;23.380;2023-06-26T11:55:13;93832.91;;;25.03;63.61
11808;BME280;5961;42.640;23.380;2023-06-26T11:57:39;93828.47;;;25.09;63.12
11808;BME280;5961;42.640;23.380;2023-06-26T12:00:13;93831.16;;;25.25;63.15
11808;BME280;5961;42.640;23.380;2023-06-26T12:02:42;93816.72;;;25.12;62.40
11808;BME280;5961;42.640;23.380;2023-06-26T12:05:09;93828.53;;;25.22;62.13
11808;BME280;5961;42.640;23.380;2023-06-26T12:07:36;93821.47;;;25.24;63.41
11808;BME280;5961;42.640;23.380;2023-06-26T12:10:04;93823.31;;;25.27;62.82
11808;BME280;5961;42.640;23.380;2023-06-26T12:12:33;93820.09;;;25.32;61.94
11808;BME280;5961;42.640;23.380;2023-06-26T12:15:00;93827.38;;;25.35;63.38
11808;BME280;5961;42.640;23.380;2023-06-26T12:17:27;93820.72;;;25.52;64.26
11808;BME280;5961;42.640;23.380;2023-06-26T12:19:54;93824.22;;;25.66;62.49
11808;BME280;5961;42.640;23.380;2023-06-26T12:22:21;93821.75;;;25.84;62.55
11808;BME280;5961;42.640;23.380;2023-06-26T12:24:48;93831.84;;;25.96;59.41
11808;BME280;5961;42.640;23.380;2023-06-26T12:27:15;93822.72;;;26.02;59.59
11808;BME280;5961;42.640;23.380;2023-06-26T12:29:51;93826.00;;;25.97;58.89
11808;BME280;5961;42.640;23.380;2023-06-26T12:32:18;93823.53;;;26.15;60.00
11808;BME280;5961;42.640;23.380;2023-06-26T12:34:48;93812.94;;;26.30;58.74
11808;BME280;5961;42.640;23.380;2023-06-26T12:37:16;93819.06;;;26.34;57.51
11808;BME280;5961;42.640;23.380;2023-06-26T12:39:47;93820.66;;;26.44;56.69
11808;BME280;5961;42.640;23.380;2023-06-26T12:42:17;93823.16;;;26.51;55.89
11808;BME280;5961;42.640;23.380;2023-06-26T12:44:44;93817.38;;;26.62;58.55
11808;BME280;5961;42.640;23.380;2023-06-26T12:47:13;93807.88;;;26.66;57.48
11808;BME280;5961;42.640;23.380;2023-06-26T12:49:42;93820.72;;;26.79;55.20
11808;BME280;5961;42.640;23.380;2023-06-26T12:52:11;93798.13;;;26.78;55.37
11808;BME280;5961;42.640;23.380;2023-06-26T12:54:39;93814.69;;;26.96;54.70
11808;BME280;5961;42.640;23.380;2023-06-26T12:57:06;93805.81;;;27.05;55.56